Polar Lady — WDC4401 — position and weather

sailwx.info

Track history (hours):
 
Tides and Currents Weather Stations Pressure Air Temp Water Temp Dewpoint Dewpoint Depression Visibility Wind Speed Wind Dir Waves Ship Positions

Polar Lady

More information available from US FCC via Universal Licensing System and Coast Guard Vessel Documentation Center.

Last reported at 2014-Aug-23 03:34 UTC. Time now 2014-Aug-23 09:29 UTC.
Position N 48°45' W 122°30'.

Length 40 m.

Type: Fishing. MMSI: 367024080.

Date/timePositionNaut miles runAvg speedWind from/ knotsBaromVisibWave heightAir tempDewpointWater temp
2014-Aug-23 03:34N 48°45' W 122°30'5 0.2
2014-Aug-21 16:31N 48°41' W 122°35'8 7.8
2014-Aug-21 15:28N 48°47' W 122°44'8 8.6
2014-Aug-21 14:33N 48°52' W 122°53'8 8.1
2014-Aug-21 13:33N 48°57' W 123°03'1 0.9
2014-Aug-21 12:33N 48°58' W 123°04'0 0.0
2014-Aug-21 11:34N 48°58' W 123°04'0 0.0
2014-Aug-21 10:34N 48°58' W 123°04'0 0.0
2014-Aug-21 09:34N 48°58' W 123°04'0 0.0
2014-Aug-21 08:33N 48°58' W 123°04'0 0.0
2014-Aug-21 07:33N 48°58' W 123°04'0 0.0
2014-Aug-21 06:33N 48°58' W 123°04'0 0.0
2014-Aug-21 05:33N 48°58' W 123°04'0 0.0
2014-Aug-21 04:34N 48°58' W 123°04'0 0.0
2014-Aug-21 03:33N 48°58' W 123°04'0 0.0
2014-Aug-21 02:34N 48°58' W 123°04'0 0.0
2014-Aug-21 01:30N 48°58' W 123°04'0 0.0
2014-Aug-21 00:33N 48°58' W 123°04'0 0.0
2014-Aug-20 23:33N 48°58' W 123°04'0 0.0
2014-Aug-20 22:33N 48°58' W 123°04'0 0.0
2014-Aug-20 21:12N 48°58' W 123°04'0 0.0
2014-Aug-20 20:33N 48°58' W 123°04'0 0.0
2014-Aug-20 19:33N 48°58' W 123°04'0 0.0
2014-Aug-20 18:29N 48°58' W 123°04'0 0.0
2014-Aug-20 17:34N 48°58' W 123°04'0 0.0
2014-Aug-20 16:33N 48°58' W 123°04'0 0.0
2014-Aug-20 15:27N 48°58' W 123°04'0 0.0
2014-Aug-20 14:33N 48°58' W 123°04'0 0.0
2014-Aug-20 13:33N 48°58' W 123°04'0 0.0
2014-Aug-20 12:34N 48°58' W 123°04'0 0.0
2014-Aug-20 11:33N 48°58' W 123°04'0 0.0
2014-Aug-20 10:34N 48°58' W 123°04'0 0.0
2014-Aug-20 09:34N 48°58' W 123°04'0 0.0
2014-Aug-20 08:32N 48°58' W 123°04'0 0.0
2014-Aug-20 07:34N 48°58' W 123°04'0 0.0
2014-Aug-20 06:33N 48°58' W 123°04'0 0.0
2014-Aug-20 05:30N 48°58' W 123°04'2 2.4
2014-Aug-20 04:34N 48°57' W 123°07'10 9.5
2014-Aug-20 03:34N 49°01' W 123°20'9 9.3
2014-Aug-20 02:34N 49°07' W 123°31'10 9.7
2014-Aug-20 01:32N 49°14' W 123°42'29 9.3
2014-Aug-19 22:26N 49°27' W 124°21'109 8.4
2014-Aug-19 09:30N 50°31' W 126°38'15 7.5
2014-Aug-19 07:33N 50°42' W 126°54'9 8.5
2014-Aug-19 06:29N 50°47' W 127°05'8 8.6
2014-Aug-19 05:33N 50°51' W 127°16'9 8.7
2014-Aug-19 04:33N 50°56' W 127°28'9 8.8
2014-Aug-19 03:33N 51°02' W 127°38'8 8.5
2014-Aug-19 02:33N 51°08' W 127°47'12 8.6
2014-Aug-19 01:10N 51°20' W 127°52'6 8.8
2014-Aug-19 00:27N 51°26' W 127°51'35 9.1
2014-Aug-18 20:33N 52°01' W 127°56'8 7.3
2014-Aug-18 19:29N 52°06' W 128°07'7 7.9
2014-Aug-18 18:33N 52°13' W 128°09'145 8.0
2014-Aug-18 00:29N 54°12' W 130°27'  
Track history (hours):
 
Tides and Currents Weather Stations Pressure Air Temp Water Temp Dewpoint Dewpoint Depression Visibility Wind Speed Wind Dir Waves Ship Positions

Polar Lady

More information available from US FCC via Universal Licensing System and Coast Guard Vessel Documentation Center.

Last reported at 2014-Aug-23 03:34 UTC. Time now 2014-Aug-23 09:29 UTC.
Position N 48°45' W 122°30'.

Length 40 m.

Type: Fishing. MMSI: 367024080.

Date/timePositionNaut miles runAvg speedWind from/ knotsBaromVisibWave heightAir tempDewpointWater temp
2014-Aug-23 03:34N 48°45' W 122°30'5 0.2
2014-Aug-21 16:31N 48°41' W 122°35'8 7.8
2014-Aug-21 15:28N 48°47' W 122°44'8 8.6
2014-Aug-21 14:33N 48°52' W 122°53'8 8.1
2014-Aug-21 13:33N 48°57' W 123°03'1 0.9
2014-Aug-21 12:33N 48°58' W 123°04'0 0.0
2014-Aug-21 11:34N 48°58' W 123°04'0 0.0
2014-Aug-21 10:34N 48°58' W 123°04'0 0.0
2014-Aug-21 09:34N 48°58' W 123°04'0 0.0
2014-Aug-21 08:33N 48°58' W 123°04'0 0.0
2014-Aug-21 07:33N 48°58' W 123°04'0 0.0
2014-Aug-21 06:33N 48°58' W 123°04'0 0.0
2014-Aug-21 05:33N 48°58' W 123°04'0 0.0
2014-Aug-21 04:34N 48°58' W 123°04'0 0.0
2014-Aug-21 03:33N 48°58' W 123°04'0 0.0
2014-Aug-21 02:34N 48°58' W 123°04'0 0.0
2014-Aug-21 01:30N 48°58' W 123°04'0 0.0
2014-Aug-21 00:33N 48°58' W 123°04'0 0.0
2014-Aug-20 23:33N 48°58' W 123°04'0 0.0
2014-Aug-20 22:33N 48°58' W 123°04'0 0.0
2014-Aug-20 21:12N 48°58' W 123°04'0 0.0
2014-Aug-20 20:33N 48°58' W 123°04'0 0.0
2014-Aug-20 19:33N 48°58' W 123°04'0 0.0
2014-Aug-20 18:29N 48°58' W 123°04'0 0.0
2014-Aug-20 17:34N 48°58' W 123°04'0 0.0
2014-Aug-20 16:33N 48°58' W 123°04'0 0.0
2014-Aug-20 15:27N 48°58' W 123°04'0 0.0
2014-Aug-20 14:33N 48°58' W 123°04'0 0.0
2014-Aug-20 13:33N 48°58' W 123°04'0 0.0
2014-Aug-20 12:34N 48°58' W 123°04'0 0.0
2014-Aug-20 11:33N 48°58' W 123°04'0 0.0
2014-Aug-20 10:34N 48°58' W 123°04'0 0.0
2014-Aug-20 09:34N 48°58' W 123°04'0 0.0
2014-Aug-20 08:32N 48°58' W 123°04'0 0.0
2014-Aug-20 07:34N 48°58' W 123°04'0 0.0
2014-Aug-20 06:33N 48°58' W 123°04'0 0.0
2014-Aug-20 05:30N 48°58' W 123°04'2 2.4
2014-Aug-20 04:34N 48°57' W 123°07'10 9.5
2014-Aug-20 03:34N 49°01' W 123°20'9 9.3
2014-Aug-20 02:34N 49°07' W 123°31'10 9.7
2014-Aug-20 01:32N 49°14' W 123°42'29 9.3
2014-Aug-19 22:26N 49°27' W 124°21'109 8.4
2014-Aug-19 09:30N 50°31' W 126°38'15 7.5
2014-Aug-19 07:33N 50°42' W 126°54'9 8.5
2014-Aug-19 06:29N 50°47' W 127°05'8 8.6
2014-Aug-19 05:33N 50°51' W 127°16'9 8.7
2014-Aug-19 04:33N 50°56' W 127°28'9 8.8
2014-Aug-19 03:33N 51°02' W 127°38'8 8.5
2014-Aug-19 02:33N 51°08' W 127°47'12 8.6
2014-Aug-19 01:10N 51°20' W 127°52'6 8.8
2014-Aug-19 00:27N 51°26' W 127°51'35 9.1
2014-Aug-18 20:33N 52°01' W 127°56'8 7.3
2014-Aug-18 19:29N 52°06' W 128°07'7 7.9
2014-Aug-18 18:33N 52°13' W 128°09'145 8.0
2014-Aug-18 00:29N 54°12' W 130°27'  

Dump ship's entire track history